Cherry Capital Airport
KTVC : rendu visible

Aérodrome :











RETROUVEZ-NOUS SUR...

 
LOGIN :

S'inscrire | Disclaimer

   EN    FR    IT 

 









Légende :    VFR   VFR Marginal   IFR   IFR Intensif   IFR Très Intensif
Visi : 
Plafond : 
>= 8 km
>= 3000ft
5 à 8 km
1000 à 3000 ft
1500m à 5 km
500 à 1000 ft
800 à 1500m
200 à 500 ft
< 800m
< 200 ft
Symboles :   Orages  Brouillard  Fortes neiges  Fortes précipitations  Vent > 20 kt






- Altitude de l'aérodrome : 624 ft
- Code IATA : TVC


KTVC - Cherry Capital

DERNIER METAR :
  • 230153Z 20009KT 10SM SCT250 03/M03 A2997 RMK AO2 SLP155 LAST T00331033

METARs EXPIRÉS :
  • 230053Z 21010G19KT 10SM BKN250 03/M03 A2998 RMK AO2 SLP160 T00331028
  • 222353Z 21006KT 10SM BKN250 04/M03 A2998 RMK AO2 SLP158 4/004 T00391028 10072 20039 55007

TAF KTVC
Valide du 23 à 00h jusqu'au 24 à 00h UTC


222320Z 2300/2324 22008KT P6SM SCT250
FM230300 22006KT P6SM SCT250 WS020/26035KT
FM231400 22011G20KT P6SM SCT120 BKN200
FM231800 23014G24KT P6SM SCT060 BKN120



MET'MAP, la Météo Aéronautique d'un coup d'oeil ! - Copyright ORBIFLY Décembre 2007 - Disclaimer

ORBIFLY MET'MAP TEAM :

Programmation & Développement : Alexandra Zaïnal
Sur une idée originale de : Baudouin d'Aumeries
Assistance à la programmation : Marc-Olivier Méhu
Soutien technique & logistique : Manuel Goepfert

Contact : metmap@orbifly.com




SOURCES & CREDITS :

   NOAA       Earth
Advisory